createdAt,value
2017-11-23T00:00:23.513Z,99.99
2017-11-23T00:02:16.890Z,99.99
2017-11-23T00:03:16.899Z,99.99
2017-11-23T00:05:10.292Z,99.99
2017-11-23T00:06:10.296Z,99.85
2017-11-23T00:08:03.653Z,99.47
2017-11-23T00:09:03.653Z,98.62
2017-11-23T00:10:57.059Z,98.96
2017-11-23T00:11:57.050Z,99.19
2017-11-23T00:13:50.417Z,99.09
2017-11-23T00:14:50.430Z,99.38
2017-11-23T00:16:43.813Z,99.57
2017-11-23T00:17:43.796Z,99.99
2017-11-23T00:19:37.195Z,99.99
2017-11-23T00:20:37.189Z,99.99
2017-11-23T00:22:30.549Z,99.99
2017-11-23T00:23:30.574Z,99.99
2017-11-23T00:25:23.949Z,99.99
2017-11-23T00:26:23.937Z,99.99
2017-11-23T00:28:17.308Z,99.99
2017-11-23T00:29:17.327Z,99.66
2017-11-23T00:31:10.715Z,99.62
2017-11-23T00:32:10.694Z,99.19
2017-11-23T00:34:04.081Z,99.76
2017-11-23T00:35:04.069Z,99.66
2017-11-23T00:36:57.486Z,99.76
2017-11-23T00:37:57.461Z,99.28
2017-11-23T00:39:50.870Z,99.57
2017-11-23T00:40:50.844Z,98.81
2017-11-23T00:42:44.254Z,99.09
2017-11-23T00:43:44.264Z,99.19
2017-11-23T00:45:37.645Z,99.19
2017-11-23T00:46:37.639Z,99.85
2017-11-23T00:48:31.013Z,99.95
2017-11-23T00:49:31.007Z,99.57
2017-11-23T00:51:24.405Z,99.85
2017-11-23T00:52:24.386Z,99.99
2017-11-23T00:54:17.768Z,99.99
2017-11-23T00:55:17.773Z,99.66
2017-11-23T00:57:11.160Z,99.85
2017-11-23T00:58:11.148Z,99.99
2017-11-23T01:00:04.545Z,99.99
2017-11-23T01:01:04.546Z,99.99
2017-11-23T01:02:57.909Z,99.99
2017-11-23T01:03:57.904Z,99.99
2017-11-23T01:05:51.324Z,99.57
2017-11-23T01:06:51.281Z,99.95
2017-11-23T01:08:44.658Z,98.81
2017-11-23T01:09:44.658Z,98.81
2017-11-23T01:11:38.063Z,98.71
2017-11-23T01:12:38.040Z,99.19
2017-11-23T01:14:31.417Z,99.28
2017-11-23T01:15:31.418Z,99.38
2017-11-23T01:17:24.818Z,98.90
2017-11-23T01:18:24.802Z,99.09
2017-11-23T01:20:18.192Z,98.33
2017-11-23T01:21:18.174Z,98.14
2017-11-23T01:23:11.551Z,98.43
2017-11-23T01:24:11.551Z,98.33
2017-11-23T01:26:04.958Z,98.14
2017-11-23T01:27:04.933Z,99.00
2017-11-23T01:28:58.310Z,99.09
2017-11-23T01:29:58.310Z,99.00
2017-11-23T01:31:51.709Z,99.76
2017-11-23T01:32:51.689Z,99.00
2017-11-23T01:34:45.085Z,99.38
2017-11-23T01:35:45.075Z,99.95
2017-11-23T01:37:38.444Z,99.28
2017-11-23T01:38:38.445Z,99.99
2017-11-23T01:40:31.852Z,99.85
2017-11-23T01:41:31.824Z,99.95
2017-11-23T01:43:25.200Z,99.99
2017-11-23T01:44:25.209Z,99.99
2017-11-23T01:46:19.597Z,99.99
2017-11-23T01:47:19.577Z,99.99
2017-11-23T01:49:12.956Z,99.99
2017-11-23T01:50:12.958Z,99.57
2017-11-23T01:52:06.353Z,99.19
2017-11-23T01:53:06.333Z,99.38
2017-11-23T01:54:59.750Z,99.38
2017-11-23T01:55:59.713Z,99.99
2017-11-23T01:57:53.095Z,99.76
2017-11-23T01:58:53.095Z,99.99
2017-11-23T02:00:46.498Z,99.99
2017-11-23T02:01:46.479Z,99.99
2017-11-23T02:03:39.859Z,99.95
2017-11-23T02:04:39.858Z,99.99
2017-11-23T02:06:33.259Z,99.95
2017-11-23T02:07:33.243Z,99.99
2017-11-23T02:09:26.614Z,99.52
2017-11-23T02:10:26.620Z,99.95
2017-11-23T02:12:20.012Z,99.99
2017-11-23T02:13:19.999Z,99.99
2017-11-23T02:15:13.372Z,99.99
2017-11-23T02:16:13.376Z,99.99
2017-11-23T02:18:06.772Z,99.99
2017-11-23T02:19:06.750Z,99.95
2017-11-23T02:21:00.148Z,99.19
2017-11-23T02:22:00.129Z,99.00
2017-11-23T02:23:53.509Z,99.19
2017-11-23T02:24:53.504Z,99.00
2017-11-23T02:26:46.912Z,99.09
2017-11-23T02:27:46.893Z,99.19
2017-11-23T02:29:40.276Z,99.28
2017-11-23T02:30:40.281Z,99.47
2017-11-23T02:32:33.676Z,99.19
2017-11-23T02:33:33.662Z,99.76
2017-11-23T02:35:27.031Z,99.00
2017-11-23T02:36:27.030Z,99.09
2017-11-23T02:38:20.438Z,98.71
2017-11-23T02:39:20.418Z,99.09
2017-11-23T02:41:13.838Z,98.81
2017-11-23T02:42:13.805Z,98.05
2017-11-23T02:44:07.171Z,98.85
2017-11-23T02:45:07.177Z,99.00
2017-11-23T02:47:00.576Z,99.42
2017-11-23T02:48:00.551Z,99.61
2017-11-23T02:49:53.929Z,99.61
2017-11-23T02:50:53.925Z,99.14
2017-11-23T02:52:47.327Z,99.33
2017-11-23T02:53:47.308Z,99.80
2017-11-23T02:55:40.717Z,99.89
2017-11-23T02:56:40.689Z,99.38
2017-11-23T02:58:34.076Z,99.99
2017-11-23T02:59:34.065Z,99.99
2017-11-23T03:01:27.462Z,99.14
2017-11-23T03:02:27.445Z,99.42
2017-11-23T03:04:20.828Z,99.89
2017-11-23T03:05:20.826Z,99.71
2017-11-23T03:07:14.221Z,98.95
2017-11-23T03:08:14.205Z,99.89
2017-11-23T03:10:07.582Z,99.14
2017-11-23T03:11:07.581Z,99.89
2017-11-23T03:13:00.976Z,99.99
2017-11-23T03:14:00.959Z,99.71
2017-11-23T03:15:54.361Z,99.99
2017-11-23T03:16:54.335Z,99.99
2017-11-23T03:18:47.726Z,99.80
2017-11-23T03:19:47.726Z,99.99
2017-11-23T03:21:41.123Z,99.89
2017-11-23T03:22:41.103Z,99.71
2017-11-23T03:24:34.477Z,99.99
2017-11-23T03:25:34.483Z,99.80
2017-11-23T03:27:27.873Z,99.99
2017-11-23T03:28:27.854Z,99.99
2017-11-23T03:30:21.261Z,99.99
2017-11-23T03:31:21.259Z,99.99
2017-11-23T03:33:14.647Z,99.99
2017-11-23T03:34:14.625Z,99.99
2017-11-23T03:36:08.024Z,99.99
2017-11-23T03:37:08.002Z,99.99
2017-11-23T03:39:01.378Z,99.99
2017-11-23T03:40:01.379Z,99.99
2017-11-23T03:41:54.775Z,99.99
2017-11-23T03:42:54.756Z,99.89
2017-11-23T03:44:48.140Z,99.47
2017-11-23T03:45:48.134Z,99.00
2017-11-23T03:47:41.529Z,99.89
2017-11-23T03:48:41.511Z,99.28
2017-11-23T03:50:34.888Z,99.00
2017-11-23T03:51:34.888Z,98.95
2017-11-23T03:53:28.285Z,98.57
2017-11-23T03:54:28.265Z,98.95
2017-11-23T03:56:21.661Z,98.66
2017-11-23T03:57:21.644Z,98.81
2017-11-23T03:59:15.019Z,98.95
2017-11-23T04:00:15.031Z,99.04
2017-11-23T04:02:08.415Z,99.14
2017-11-23T04:03:08.402Z,99.04
2017-11-23T04:05:01.775Z,99.99
2017-11-23T04:06:01.774Z,99.99
2017-11-23T04:07:55.169Z,99.89
2017-11-23T04:08:55.150Z,98.95
2017-11-23T04:10:48.533Z,99.99
2017-11-23T04:11:48.528Z,99.99
2017-11-23T04:13:41.952Z,99.99
2017-11-23T04:14:41.903Z,99.99
2017-11-23T04:16:35.283Z,99.99
2017-11-23T04:17:35.281Z,99.99
2017-11-23T04:19:28.676Z,99.99
2017-11-23T04:20:28.657Z,99.99
2017-11-23T04:22:22.053Z,99.99
2017-11-23T04:23:22.031Z,99.99
2017-11-23T04:25:15.412Z,99.99
2017-11-23T04:26:15.412Z,99.99
2017-11-23T04:28:08.815Z,99.61
2017-11-23T04:29:08.798Z,99.71
2017-11-23T04:31:02.177Z,99.80
2017-11-23T04:32:02.192Z,99.99
2017-11-23T04:33:55.574Z,99.99
2017-11-23T04:34:55.552Z,99.99
2017-11-23T04:36:48.928Z,99.99
2017-11-23T04:37:48.930Z,99.99
2017-11-23T04:39:42.328Z,99.99
2017-11-23T04:40:42.306Z,99.99
2017-11-23T04:42:35.707Z,99.99
2017-11-23T04:43:35.684Z,99.99
2017-11-23T04:45:29.065Z,99.99
2017-11-23T04:46:29.073Z,99.99
2017-11-23T04:48:22.460Z,99.99
2017-11-23T04:49:22.436Z,99.99
2017-11-23T04:51:15.814Z,99.99
2017-11-23T04:52:15.812Z,99.99
2017-11-23T04:54:09.212Z,99.99
2017-11-23T04:55:09.195Z,99.99
2017-11-23T04:57:02.572Z,99.99
2017-11-23T04:58:02.574Z,99.99
2017-11-23T04:59:55.964Z,99.99
2017-11-23T05:00:55.952Z,99.99
2017-11-23T05:02:49.342Z,99.99
2017-11-23T05:03:49.321Z,99.99
2017-11-23T05:05:43.716Z,99.99
2017-11-23T05:06:43.713Z,99.99
2017-11-23T05:08:37.127Z,99.99
2017-11-23T05:09:37.097Z,99.99
2017-11-23T05:11:30.458Z,99.99
2017-11-23T05:12:30.485Z,99.99
2017-11-23T05:14:23.937Z,99.99
2017-11-23T05:15:23.836Z,99.99
2017-11-23T05:17:17.237Z,99.99
2017-11-23T05:18:17.240Z,99.99
2017-11-23T05:20:10.629Z,99.99
2017-11-23T05:21:10.627Z,99.99
2017-11-23T05:23:04.033Z,99.99
2017-11-23T05:24:04.026Z,99.99
2017-11-23T05:25:57.393Z,99.99
2017-11-23T05:26:57.379Z,99.99
2017-11-23T05:28:50.779Z,99.99
2017-11-23T05:29:50.784Z,99.99
2017-11-23T05:31:44.139Z,99.99
2017-11-23T05:32:44.161Z,99.99
2017-11-23T05:34:37.535Z,99.99
2017-11-23T05:35:37.514Z,99.99
2017-11-23T05:37:30.893Z,99.99
2017-11-23T05:38:30.915Z,99.99
2017-11-23T05:40:24.285Z,99.99
2017-11-23T05:41:24.259Z,99.99
2017-11-23T05:43:17.678Z,99.99
2017-11-23T05:44:17.675Z,99.99
2017-11-23T05:46:11.041Z,99.99
2017-11-23T05:47:11.090Z,99.99
2017-11-23T05:49:04.413Z,99.99
2017-11-23T05:50:04.439Z,99.99
2017-11-23T05:51:57.792Z,99.99
2017-11-23T05:52:57.801Z,99.99
2017-11-23T05:54:51.196Z,99.99
2017-11-23T05:55:51.190Z,99.99
2017-11-23T05:57:44.568Z,99.99
2017-11-23T05:58:44.596Z,99.99
2017-11-23T06:00:37.932Z,99.99
2017-11-23T06:01:37.965Z,99.99
2017-11-23T06:03:31.291Z,99.99
2017-11-23T06:04:31.327Z,99.99
2017-11-23T06:06:24.686Z,99.99
2017-11-23T06:07:24.665Z,99.99
2017-11-23T06:09:18.085Z,99.99
2017-11-23T06:10:18.071Z,99.99
2017-11-23T06:12:11.448Z,99.99
2017-11-23T06:13:11.439Z,99.99
2017-11-23T06:15:04.845Z,99.99
2017-11-23T06:16:04.844Z,99.99
2017-11-23T06:17:58.197Z,99.99
2017-11-23T06:18:58.242Z,99.99
2017-11-23T06:20:51.643Z,99.99
2017-11-23T06:21:51.620Z,99.99
2017-11-23T06:23:44.992Z,99.99
2017-11-23T06:24:45.025Z,99.99
2017-11-23T06:26:38.400Z,99.99
2017-11-23T06:27:38.389Z,99.99
2017-11-23T06:29:31.758Z,99.99
2017-11-23T06:30:31.761Z,99.99
2017-11-23T06:32:25.139Z,99.99
2017-11-23T06:33:25.135Z,99.99
2017-11-23T06:35:18.529Z,99.99
2017-11-23T06:36:18.496Z,99.99
2017-11-23T06:38:11.899Z,99.99
2017-11-23T06:39:11.889Z,99.99
2017-11-23T06:41:05.286Z,99.99
2017-11-23T06:42:05.260Z,99.99
2017-11-23T06:43:58.638Z,99.99
2017-11-23T06:44:58.638Z,99.99
2017-11-23T06:46:52.045Z,99.99
2017-11-23T06:47:52.023Z,99.99
2017-11-23T06:49:45.594Z,99.99
2017-11-23T06:50:45.452Z,99.99
2017-11-23T06:52:38.831Z,99.99
2017-11-23T06:53:38.834Z,99.99
2017-11-23T06:55:32.229Z,99.99
2017-11-23T06:56:32.228Z,99.99
2017-11-23T06:58:25.621Z,99.99
2017-11-23T06:59:25.608Z,99.99
2017-11-23T07:01:19.003Z,99.99
2017-11-23T07:02:18.988Z,99.99
2017-11-23T07:04:12.366Z,99.99
2017-11-23T07:05:12.377Z,99.99
2017-11-23T07:07:05.763Z,99.99
2017-11-23T07:08:05.763Z,99.99
2017-11-23T07:09:59.125Z,99.99
2017-11-23T07:10:59.125Z,99.99
2017-11-23T07:12:52.525Z,99.99
2017-11-23T07:13:52.490Z,99.99
2017-11-23T07:15:45.897Z,99.99
2017-11-23T07:16:45.879Z,99.99
2017-11-23T07:18:39.256Z,99.99
2017-11-23T07:19:39.289Z,99.99
2017-11-23T07:21:32.670Z,99.99
2017-11-23T07:22:32.685Z,99.99
2017-11-23T07:24:26.072Z,99.99
2017-11-23T07:25:26.043Z,99.99
2017-11-23T07:27:19.438Z,99.99
2017-11-23T07:28:19.415Z,99.99
2017-11-23T07:30:12.814Z,99.99
2017-11-23T07:31:12.827Z,99.99
2017-11-23T07:33:06.208Z,99.99
2017-11-23T07:34:06.187Z,99.99
2017-11-23T07:35:59.605Z,99.99
2017-11-23T07:36:59.579Z,99.99
2017-11-23T07:38:52.958Z,99.99
2017-11-23T07:39:53.086Z,99.99
2017-11-23T07:41:46.364Z,99.99
2017-11-23T07:42:46.339Z,99.99
2017-11-23T07:44:39.754Z,99.99
2017-11-23T07:45:39.794Z,99.99
2017-11-23T07:47:33.150Z,99.99
2017-11-23T07:48:33.119Z,99.99
2017-11-23T07:50:26.484Z,99.99
2017-11-23T07:51:26.487Z,99.99
2017-11-23T07:53:19.868Z,99.99
2017-11-23T07:54:19.860Z,99.99
2017-11-23T07:56:14.300Z,99.99
2017-11-23T07:57:14.277Z,99.99
2017-11-23T07:59:07.716Z,99.99
2017-11-23T08:00:07.695Z,99.99
2017-11-23T08:02:01.068Z,99.99
2017-11-23T08:03:01.075Z,99.99
2017-11-23T08:04:54.438Z,99.99
2017-11-23T08:05:54.548Z,98.63
2017-11-23T08:07:47.822Z,95.55
2017-11-23T08:08:47.814Z,95.36
2017-11-23T08:10:41.230Z,93.84
2017-11-23T08:11:41.194Z,93.18
2017-11-23T08:13:34.573Z,92.37
2017-11-23T08:14:34.584Z,92.09
2017-11-23T08:16:27.972Z,90.28
2017-11-23T08:17:27.968Z,90.09
2017-11-23T08:19:21.351Z,89.33
2017-11-23T08:20:21.341Z,89.81
2017-11-23T08:22:14.748Z,90.19
2017-11-23T08:23:14.719Z,90.28
2017-11-23T08:25:08.110Z,90.66
2017-11-23T08:26:08.129Z,90.05
2017-11-23T08:28:01.513Z,90.28
2017-11-23T08:29:01.494Z,89.57
2017-11-23T08:30:54.870Z,89.95
2017-11-23T08:31:54.870Z,89.86
2017-11-23T08:33:48.290Z,89.47
2017-11-23T08:34:48.262Z,88.62
2017-11-23T08:36:41.675Z,86.29
2017-11-23T08:37:41.669Z,86.57
2017-11-23T08:39:35.044Z,86.10
2017-11-23T08:40:35.043Z,84.95
2017-11-23T08:42:28.429Z,85.72
2017-11-23T08:43:28.415Z,85.34
2017-11-23T08:45:21.800Z,85.38
2017-11-23T08:46:21.828Z,84.05
2017-11-23T08:48:15.216Z,82.91
2017-11-23T08:49:15.220Z,82.62
2017-11-23T08:51:08.607Z,81.52
2017-11-23T08:52:08.621Z,80.47
2017-11-23T08:54:02.034Z,79.52
2017-11-23T08:55:02.017Z,79.33
2017-11-23T08:56:55.356Z,79.47
2017-11-23T08:57:55.374Z,79.47
2017-11-23T08:59:48.773Z,79.85
2017-11-23T09:00:48.744Z,80.33
2017-11-23T09:02:42.237Z,81.24
2017-11-23T09:03:42.147Z,79.91
2017-11-23T09:05:35.554Z,79.43
2017-11-23T09:06:35.546Z,78.61
2017-11-23T09:08:28.900Z,77.95
2017-11-23T09:09:28.909Z,77.95
2017-11-23T09:11:22.325Z,78.99
2017-11-23T09:12:22.337Z,79.28
2017-11-23T09:14:15.708Z,79.09
2017-11-23T09:15:15.699Z,79.57
2017-11-23T09:17:09.123Z,79.66
2017-11-23T09:18:09.088Z,79.85
2017-11-23T09:20:02.466Z,79.09
2017-11-23T09:21:02.467Z,78.80
2017-11-23T09:22:55.893Z,79.19
2017-11-23T09:23:55.863Z,79.60
2017-11-23T09:25:49.243Z,77.74
2017-11-23T09:26:49.256Z,76.03
2017-11-23T09:28:42.679Z,73.07
2017-11-23T09:29:42.656Z,72.97
2017-11-23T09:31:36.016Z,73.74
2017-11-23T09:32:36.020Z,73.26
2017-11-23T09:34:29.429Z,73.36
2017-11-23T09:35:29.436Z,73.61
2017-11-23T09:37:22.800Z,75.13
2017-11-23T09:38:22.817Z,75.89
2017-11-23T09:40:16.213Z,75.70
2017-11-23T09:41:16.214Z,75.60
2017-11-23T09:43:09.600Z,76.56
2017-11-23T09:44:09.590Z,74.65
2017-11-23T09:46:03.382Z,74.94
2017-11-23T09:47:02.985Z,74.56
2017-11-23T09:48:56.376Z,73.80
2017-11-23T09:49:56.360Z,72.94
2017-11-23T09:51:49.778Z,72.02
2017-11-23T09:52:49.781Z,71.64
2017-11-23T09:54:43.135Z,70.50
2017-11-23T09:55:43.157Z,70.40
2017-11-23T09:57:36.548Z,71.26
2017-11-23T09:58:36.535Z,70.31
2017-11-23T10:00:29.915Z,69.83
2017-11-23T10:01:29.943Z,69.64
2017-11-23T10:03:24.329Z,69.54
2017-11-23T10:04:24.320Z,69.64
2017-11-23T10:06:17.714Z,70.12
2017-11-23T10:07:17.718Z,70.40
2017-11-23T10:09:11.129Z,70.31
2017-11-23T10:10:11.108Z,69.54
2017-11-23T10:12:04.489Z,69.45
2017-11-23T10:13:04.503Z,69.74
2017-11-23T10:14:57.892Z,68.82
2017-11-23T10:15:57.875Z,68.91
2017-11-23T10:17:51.278Z,69.01
2017-11-23T10:18:51.314Z,67.58
2017-11-23T10:20:44.679Z,66.94
2017-11-23T10:21:44.677Z,65.80
2017-11-23T10:23:38.060Z,64.47
2017-11-23T10:24:38.070Z,61.25
2017-11-23T10:26:31.462Z,58.25
2017-11-23T10:27:31.452Z,56.15
2017-11-23T10:29:24.901Z,56.17
2017-11-23T10:30:24.848Z,57.70
2017-11-23T10:32:18.267Z,56.10
2017-11-23T10:33:18.270Z,56.32
2017-11-23T10:35:11.671Z,52.30
2017-11-23T10:36:11.668Z,51.92
2017-11-23T10:38:05.041Z,51.95
2017-11-23T10:39:05.048Z,51.95
2017-11-23T10:40:58.479Z,52.18
2017-11-23T10:41:58.444Z,52.47
2017-11-23T10:43:51.837Z,53.55
2017-11-23T10:44:51.851Z,51.32
2017-11-23T10:46:45.268Z,51.59
2017-11-23T10:47:45.265Z,50.22
2017-11-23T10:49:38.649Z,50.73
2017-11-23T10:50:38.666Z,51.01
2017-11-23T10:52:32.058Z,49.29
2017-11-23T10:53:32.048Z,49.33
2017-11-23T10:55:25.456Z,48.66
2017-11-23T10:56:25.470Z,49.31
2017-11-23T10:58:18.865Z,49.52
2017-11-23T10:59:18.875Z,50.29
2017-11-23T11:01:12.255Z,49.14
2017-11-23T11:02:12.293Z,49.36
2017-11-23T11:04:05.683Z,49.38
2017-11-23T11:05:05.670Z,48.23
2017-11-23T11:06:59.065Z,49.55
2017-11-23T11:07:59.076Z,48.38
2017-11-23T11:09:52.516Z,50.46
2017-11-23T11:10:52.490Z,50.05
2017-11-23T11:12:45.901Z,50.21
2017-11-23T11:13:45.888Z,50.60
2017-11-23T11:15:39.322Z,51.84
2017-11-23T11:16:39.302Z,51.84
2017-11-23T11:18:32.696Z,52.10
2017-11-23T11:19:32.700Z,52.22
2017-11-23T11:21:26.156Z,53.34
2017-11-23T11:22:26.137Z,53.82
2017-11-23T11:24:19.538Z,53.73
2017-11-23T11:25:19.521Z,53.63
2017-11-23T11:27:13.890Z,54.11
2017-11-23T11:28:13.912Z,53.92
2017-11-23T11:30:07.347Z,55.35
2017-11-23T11:31:07.318Z,55.93
2017-11-23T11:33:00.705Z,54.11
2017-11-23T11:34:00.728Z,55.16
2017-11-23T11:35:54.117Z,54.97
2017-11-23T11:36:54.109Z,56.02
2017-11-23T11:38:47.500Z,54.27
2017-11-23T11:39:47.532Z,53.92
2017-11-23T11:41:40.941Z,53.63
2017-11-23T11:42:40.931Z,53.22
2017-11-23T11:44:34.304Z,55.13
2017-11-23T11:45:34.348Z,55.04
2017-11-23T11:47:28.730Z,54.94
2017-11-23T11:48:28.742Z,56.09
2017-11-23T11:50:22.168Z,56.25
2017-11-23T11:51:22.151Z,56.82
2017-11-23T11:53:15.579Z,57.31
2017-11-23T11:54:15.542Z,56.16
2017-11-23T11:56:08.910Z,57.21
2017-11-23T11:57:08.914Z,56.82
2017-11-23T11:59:02.343Z,58.54
2017-11-23T12:00:02.337Z,57.87
2017-11-23T12:01:55.780Z,58.07
2017-11-23T12:02:55.716Z,57.97
2017-11-23T12:04:49.122Z,58.83
2017-11-23T12:05:49.133Z,56.92
2017-11-23T12:07:42.510Z,58.93
2017-11-23T12:08:42.525Z,60.49
2017-11-23T12:10:35.951Z,58.93
2017-11-23T12:11:35.916Z,59.69
2017-11-23T12:13:30.335Z,58.26
2017-11-23T12:14:30.331Z,57.11
2017-11-23T12:16:23.743Z,57.87
2017-11-23T12:17:23.749Z,57.40
2017-11-23T12:19:17.121Z,58.36
2017-11-23T12:20:17.123Z,57.87
2017-11-23T12:22:10.499Z,57.11
2017-11-23T12:23:10.501Z,57.87
2017-11-23T12:25:03.916Z,58.36
2017-11-23T12:26:03.918Z,58.93
2017-11-23T12:27:57.318Z,58.83
2017-11-23T12:28:57.326Z,58.16
2017-11-23T12:30:50.713Z,58.93
2017-11-23T12:31:50.711Z,57.97
2017-11-23T12:33:44.123Z,58.36
2017-11-23T12:34:44.127Z,58.36
2017-11-23T12:36:37.532Z,58.93
2017-11-23T12:37:37.510Z,58.14
2017-11-23T12:39:30.900Z,57.75
2017-11-23T12:40:30.919Z,58.36
2017-11-23T12:42:24.299Z,58.16
2017-11-23T12:43:24.301Z,58.64
2017-11-23T12:45:17.681Z,58.93
2017-11-23T12:46:17.704Z,58.64
2017-11-23T12:48:11.124Z,58.64
2017-11-23T12:49:11.075Z,58.26
2017-11-23T12:51:04.495Z,58.83
2017-11-23T12:52:04.501Z,58.07
2017-11-23T12:53:57.901Z,58.93
2017-11-23T12:54:57.884Z,59.15
2017-11-23T12:56:51.272Z,58.95
2017-11-23T12:57:51.323Z,58.86
2017-11-23T12:59:44.724Z,58.58
2017-11-23T13:00:44.702Z,58.86
2017-11-23T13:02:38.089Z,58.29
2017-11-23T13:03:38.095Z,58.86
2017-11-23T13:05:31.503Z,57.90
2017-11-23T13:06:31.504Z,58.19
2017-11-23T13:08:24.913Z,59.15
2017-11-23T13:09:24.897Z,59.72
2017-11-23T13:11:18.294Z,59.44
2017-11-23T13:12:18.295Z,60.20
2017-11-23T13:14:11.817Z,58.64
2017-11-23T13:15:11.711Z,58.83
2017-11-23T13:17:05.110Z,59.22
2017-11-23T13:18:05.118Z,61.35
2017-11-23T13:19:58.516Z,59.22
2017-11-23T13:20:58.507Z,59.15
2017-11-23T13:22:51.894Z,59.44
2017-11-23T13:23:51.905Z,59.34
2017-11-23T13:25:45.313Z,59.02
2017-11-23T13:26:45.285Z,59.81
2017-11-23T13:28:38.724Z,59.24
2017-11-23T13:29:38.725Z,60.07
2017-11-23T13:31:32.146Z,60.74
2017-11-23T13:32:32.087Z,60.07
2017-11-23T13:34:25.484Z,60.07
2017-11-23T13:35:25.487Z,60.17
2017-11-23T13:37:18.923Z,59.78
2017-11-23T13:38:18.930Z,59.44
2017-11-23T13:40:12.837Z,59.98
2017-11-23T13:41:12.325Z,59.59
2017-11-23T13:43:05.688Z,60.93
2017-11-23T13:44:05.703Z,61.51
2017-11-23T13:45:59.114Z,61.89
2017-11-23T13:46:59.096Z,64.65
2017-11-23T13:48:52.491Z,62.46
2017-11-23T13:49:52.493Z,62.43
2017-11-23T13:51:45.911Z,63.20
2017-11-23T13:52:45.904Z,64.91
2017-11-23T13:54:39.267Z,64.81
2017-11-23T13:55:39.302Z,63.76
2017-11-23T13:57:32.754Z,66.82
2017-11-23T13:58:32.686Z,66.98
2017-11-23T14:00:26.097Z,67.74
2017-11-23T14:01:26.117Z,65.55
2017-11-23T14:03:19.496Z,63.73
2017-11-23T14:04:19.497Z,62.43
2017-11-23T14:06:12.878Z,61.73
2017-11-23T14:07:12.893Z,61.38
2017-11-23T14:09:06.317Z,62.15
2017-11-23T14:10:06.295Z,61.66
2017-11-23T14:11:59.677Z,62.24
2017-11-23T14:12:59.704Z,62.40
2017-11-23T14:14:53.100Z,61.83
2017-11-23T14:15:53.093Z,61.63
2017-11-23T14:17:46.460Z,61.16
2017-11-23T14:18:46.484Z,60.87
2017-11-23T14:20:39.891Z,60.02
2017-11-23T14:21:39.856Z,60.21
2017-11-23T14:23:33.278Z,60.78
2017-11-23T14:24:33.293Z,61.25
2017-11-23T14:26:26.683Z,61.25
2017-11-23T14:27:26.667Z,61.35
2017-11-23T14:29:20.055Z,62.02
2017-11-23T14:30:20.075Z,61.16
2017-11-23T14:32:13.472Z,61.83
2017-11-23T14:33:13.478Z,61.92
2017-11-23T14:35:06.933Z,61.83
2017-11-23T14:36:06.877Z,61.92
2017-11-23T14:38:00.282Z,61.07
2017-11-23T14:39:00.265Z,61.63
2017-11-23T14:40:53.624Z,62.02
2017-11-23T14:41:53.655Z,61.73
2017-11-23T14:43:47.071Z,62.27
2017-11-23T14:44:47.055Z,61.70
2017-11-23T14:46:40.436Z,61.92
2017-11-23T14:47:40.461Z,62.30
2017-11-23T14:49:33.825Z,62.27
2017-11-23T14:50:33.833Z,62.84
2017-11-23T14:52:27.220Z,62.08
2017-11-23T14:53:27.209Z,62.27
2017-11-23T14:55:20.659Z,62.56
2017-11-23T14:56:20.639Z,63.04
2017-11-23T14:58:14.024Z,63.70
2017-11-23T14:59:14.057Z,63.70
2017-11-23T15:01:07.413Z,64.28
2017-11-23T15:02:07.407Z,64.56
2017-11-23T15:04:00.794Z,64.28
2017-11-23T15:05:00.811Z,64.85
2017-11-23T15:06:54.222Z,66.24
2017-11-23T15:07:54.184Z,66.24
2017-11-23T15:09:47.614Z,66.24
2017-11-23T15:10:47.621Z,66.82
2017-11-23T15:12:40.993Z,66.05
2017-11-23T15:13:41.000Z,67.58
2017-11-23T15:15:34.390Z,67.20
2017-11-23T15:16:34.386Z,67.29
2017-11-23T15:18:27.758Z,67.39
2017-11-23T15:19:27.789Z,66.72
2017-11-23T15:21:21.188Z,66.24
2017-11-23T15:22:21.184Z,66.24
2017-11-23T15:24:14.558Z,66.24
2017-11-23T15:25:14.565Z,65.96
2017-11-23T15:27:07.986Z,66.15
2017-11-23T15:28:07.992Z,65.29
2017-11-23T15:30:01.458Z,65.77
2017-11-23T15:31:01.393Z,66.24
2017-11-23T15:32:54.756Z,66.72
2017-11-23T15:33:54.782Z,66.44
2017-11-23T15:35:48.188Z,66.05
2017-11-23T15:36:48.150Z,66.34
2017-11-23T15:38:41.550Z,66.82
2017-11-23T15:39:41.580Z,66.72
2017-11-23T15:41:34.962Z,67.39
2017-11-23T15:42:34.950Z,68.02
2017-11-23T15:44:28.325Z,67.35
2017-11-23T15:45:28.337Z,67.26
2017-11-23T15:47:21.742Z,67.55
2017-11-23T15:48:21.782Z,67.64
2017-11-23T15:50:15.164Z,68.50
2017-11-23T15:51:15.137Z,68.02
2017-11-23T15:53:08.566Z,68.12
2017-11-23T15:54:08.530Z,68.21
2017-11-23T15:56:01.893Z,69.45
2017-11-23T15:57:01.881Z,69.45
2017-11-23T15:58:55.290Z,68.78
2017-11-23T15:59:55.278Z,68.69
2017-11-23T16:01:48.666Z,68.98
2017-11-23T16:02:48.685Z,68.69
2017-11-23T16:04:42.077Z,68.88
2017-11-23T16:05:42.056Z,68.12
2017-11-23T16:07:35.441Z,68.30
2017-11-23T16:08:35.460Z,69.35
2017-11-23T16:10:28.854Z,68.30
2017-11-23T16:11:28.838Z,68.21
2017-11-23T16:13:22.273Z,68.30
2017-11-23T16:14:22.251Z,68.40
2017-11-23T16:16:15.614Z,68.50
2017-11-23T16:17:15.617Z,68.40
2017-11-23T16:19:09.040Z,68.69
2017-11-23T16:20:09.016Z,68.59
2017-11-23T16:22:02.400Z,68.78
2017-11-23T16:23:02.417Z,68.98
2017-11-23T16:24:55.822Z,68.21
2017-11-23T16:25:55.941Z,69.17
2017-11-23T16:27:49.210Z,68.88
2017-11-23T16:28:49.205Z,68.88
2017-11-23T16:30:42.622Z,68.94
2017-11-23T16:31:42.617Z,69.04
2017-11-23T16:33:36.012Z,69.60
2017-11-23T16:34:36.053Z,69.42
2017-11-23T16:36:29.390Z,69.70
2017-11-23T16:37:29.403Z,69.51
2017-11-23T16:39:22.776Z,70.27
2017-11-23T16:40:22.802Z,70.47
2017-11-23T16:42:16.207Z,70.84
2017-11-23T16:43:16.212Z,71.42
2017-11-23T16:45:10.569Z,71.03
2017-11-23T16:46:10.661Z,70.94
2017-11-23T16:48:04.076Z,71.03
2017-11-23T16:49:04.162Z,71.13
2017-11-23T16:50:57.437Z,70.47
2017-11-23T16:51:57.442Z,70.56
2017-11-23T16:53:50.805Z,71.22
2017-11-23T16:54:51.410Z,70.94
2017-11-23T16:56:44.235Z,70.94
2017-11-23T16:57:44.181Z,70.94
2017-11-23T16:59:37.628Z,70.56
2017-11-23T17:00:37.623Z,70.37
2017-11-23T17:02:30.981Z,70.37
2017-11-23T17:03:30.990Z,70.75
2017-11-23T17:05:24.367Z,71.13
2017-11-23T17:06:24.362Z,70.37
2017-11-23T17:08:17.782Z,70.18
2017-11-23T17:09:17.749Z,69.89
2017-11-23T17:11:11.145Z,69.89
2017-11-23T17:12:11.157Z,69.99
2017-11-23T17:14:04.533Z,70.56
2017-11-23T17:15:04.517Z,70.56
2017-11-23T17:16:57.907Z,70.27
2017-11-23T17:17:57.939Z,70.18
2017-11-23T17:19:51.330Z,70.27
2017-11-23T17:20:51.326Z,70.84
2017-11-23T17:22:44.734Z,70.94
2017-11-23T17:23:44.691Z,70.90
2017-11-23T17:25:38.085Z,70.72
2017-11-23T17:26:38.115Z,70.62
2017-11-23T17:28:31.542Z,71.19
2017-11-23T17:29:31.492Z,71.76
2017-11-23T17:31:24.887Z,70.94
2017-11-23T17:32:25.220Z,70.27
2017-11-23T17:34:18.296Z,69.51
2017-11-23T17:35:18.334Z,69.51
2017-11-23T17:37:11.655Z,69.32
2017-11-23T17:38:11.687Z,69.51
2017-11-23T17:40:05.086Z,69.51
2017-11-23T17:41:05.069Z,69.13
2017-11-23T17:42:58.432Z,69.42
2017-11-23T17:43:58.480Z,69.42
2017-11-23T17:45:51.908Z,68.84
2017-11-23T17:46:51.852Z,69.13
2017-11-23T17:48:45.308Z,69.13
2017-11-23T17:49:45.316Z,68.65
2017-11-23T17:51:38.688Z,68.50
2017-11-23T17:52:38.689Z,68.12
2017-11-23T17:54:32.064Z,68.12
2017-11-23T17:55:32.080Z,67.93
2017-11-23T17:57:25.509Z,68.46
2017-11-23T17:58:25.487Z,68.65
2017-11-23T18:00:18.919Z,68.75
2017-11-23T18:01:18.855Z,68.46
2017-11-23T18:03:12.298Z,69.13
2017-11-23T18:04:12.288Z,68.65
2017-11-23T18:06:05.685Z,68.65
2017-11-23T18:07:05.679Z,68.75
2017-11-23T18:08:59.072Z,68.56
2017-11-23T18:09:59.761Z,68.65
2017-11-23T18:11:52.514Z,68.65
2017-11-23T18:12:52.472Z,69.42
2017-11-23T18:14:45.882Z,70.27
2017-11-23T18:15:45.878Z,69.32
2017-11-23T18:17:39.288Z,69.89
2017-11-23T18:18:39.277Z,70.33
2017-11-23T18:20:32.652Z,70.72
2017-11-23T18:21:32.654Z,71.67
2017-11-23T18:23:26.066Z,73.28
2017-11-23T18:24:26.064Z,72.90
2017-11-23T18:26:20.659Z,74.77
2017-11-23T18:27:20.662Z,75.34
2017-11-23T18:29:14.083Z,77.01
2017-11-23T18:30:14.055Z,78.34
2017-11-23T18:32:07.468Z,79.92
2017-11-23T18:33:07.453Z,81.54
2017-11-23T18:35:00.879Z,83.06
2017-11-23T18:36:00.848Z,84.77